Time;durP1;ratioP1;P1;durP2;ratioP2;P2;SDS_P1;SDS_P2;PMS_P1;PMS_P2;Temp;Humidity;BMP_temperature;BMP_pressure;BME280_temperature;BME280_humidity;BME280_pressure;Samples;Min_cycle;Max_cycle;Signal;HPM_P1;HPM_P2
2022/03/26 00:04:50;;;;;;;23.13;19.77;;;11.20;18.20;;;;;;10330717;28;20711;-77
2022/03/26 00:09:54;;;;;;;18.57;16.57;;;11.20;18.50;;;;;;10324123;28;20882;-77
2022/03/26 00:14:58;;;;;;;24.30;18.53;;;11.10;18.30;;;;;;10326308;28;20255;-77
2022/03/26 00:20:03;;;;;;;19.37;17.03;;;11.00;18.30;;;;;;10329646;28;20350;-77
2022/03/26 00:25:09;;;;;;;17.70;15.27;;;10.90;18.60;;;;;;10324575;28;20231;-76
2022/03/26 00:30:13;;;;;;;20.83;18.10;;;10.90;18.50;;;;;;10325356;28;20248;-77
2022/03/26 00:35:17;;;;;;;19.03;16.40;;;10.80;18.60;;;;;;10329295;28;20241;-77
2022/03/26 00:40:21;;;;;;;23.07;19.90;;;10.70;18.60;;;;;;10334976;28;20288;-77
2022/03/26 00:45:26;;;;;;;21.93;19.57;;;10.70;18.90;;;;;;10329005;28;20692;-77
2022/03/26 00:50:31;;;;;;;20.90;17.43;;;10.60;18.90;;;;;;10319976;28;20258;-77
2022/03/26 00:55:34;;;;;;;22.07;18.00;;;10.50;18.90;;;;;;10320017;28;20232;-77
2022/03/26 01:00:38;;;;;;;25.20;19.70;;;10.50;18.90;;;;;;10323143;28;20231;-77
2022/03/26 01:05:42;;;;;;;19.37;16.93;;;10.40;18.80;;;;;;10314319;28;20318;-77
2022/03/26 01:10:46;;;;;;;21.30;18.47;;;10.40;18.90;;;;;;10315522;28;20232;-77
2022/03/26 01:15:49;;;;;;;22.33;16.40;;;10.30;18.70;;;;;;10316658;28;20613;-77
2022/03/26 01:20:54;;;;;;;22.83;18.53;;;10.20;18.70;;;;;;10320535;28;20239;-77
2022/03/26 01:25:58;;;;;;;25.37;18.50;;;10.20;18.70;;;;;;10312496;28;20319;-77
2022/03/26 01:31:02;;;;;;;21.63;17.63;;;10.10;18.60;;;;;;10317233;28;20306;-77
2022/03/26 01:36:08;;;;;;;19.37;15.90;;;10.00;18.60;;;;;;10314218;28;20715;-77
2022/03/26 01:41:12;;;;;;;17.97;16.07;;;9.90;19.90;;;;;;10314474;28;20227;-77
2022/03/26 01:46:15;;;;;;;21.23;16.63;;;9.80;19.50;;;;;;10317200;28;20243;-77
2022/03/26 01:51:20;;;;;;;20.70;18.27;;;9.70;19.70;;;;;;10314939;28;20263;-77
2022/03/26 01:56:25;;;;;;;21.47;18.23;;;9.70;20.60;;;;;;10320494;28;20632;-77
2022/03/26 02:01:31;;;;;;;20.23;17.63;;;9.60;19.90;;;;;;10312664;28;20223;-77
2022/03/26 02:06:38;;;;;;;18.07;16.17;;;9.50;19.90;;;;;;10316871;28;20231;-77
2022/03/26 02:11:45;;;;;;;20.37;17.43;;;9.50;20.30;;;;;;10317374;28;20227;-77
2022/03/26 02:16:48;;;;;;;22.50;18.57;;;9.40;20.30;;;;;;10305615;28;20246;-77
2022/03/26 02:21:52;;;;;;;18.37;14.37;;;9.40;20.10;;;;;;10314159;28;20246;-77
2022/03/26 02:26:56;;;;;;;23.37;18.20;;;9.30;20.20;;;;;;10311307;28;20257;-77
2022/03/26 02:32:00;;;;;;;18.97;15.20;;;9.30;20.20;;;;;;10310422;28;20727;-77
2022/03/26 02:37:05;;;;;;;15.40;13.80;;;9.20;20.00;;;;;;10323281;28;20309;-77
2022/03/26 02:42:09;;;;;;;22.67;18.50;;;9.00;20.30;;;;;;10318482;28;20235;-77
2022/03/26 02:47:13;;;;;;;22.80;16.17;;;8.90;20.20;;;;;;10317234;28;20265;-77
2022/03/26 02:52:17;;;;;;;21.90;18.07;;;8.80;20.30;;;;;;10320428;28;20242;-77
2022/03/26 02:57:20;;;;;;;22.63;18.47;;;8.70;20.50;;;;;;10321876;28;20240;-77
2022/03/26 03:02:23;;;;;;;23.07;18.53;;;8.50;20.40;;;;;;10310096;28;20713;-76
2022/03/26 03:07:30;;;;;;;22.77;18.63;;;8.40;20.60;;;;;;10314408;28;20318;-77
2022/03/26 03:12:33;;;;;;;19.10;16.50;;;8.30;21.00;;;;;;10309960;28;20230;-77
2022/03/26 03:17:39;;;;;;;18.00;15.93;;;8.20;20.80;;;;;;10316084;28;20258;-77
2022/03/26 03:22:44;;;;;;;24.13;19.37;;;8.20;20.80;;;;;;10314289;28;20606;-77
2022/03/26 03:27:47;;;;;;;19.10;16.93;;;8.20;21.30;;;;;;10312004;28;20226;-76
2022/03/26 03:32:50;;;;;;;23.90;18.40;;;8.10;20.90;;;;;;10318785;28;20230;-76
2022/03/26 03:37:55;;;;;;;26.90;19.87;;;8.00;21.00;;;;;;10314780;28;20235;-76
2022/03/26 03:42:58;;;;;;;19.70;16.80;;;7.90;21.20;;;;;;10311505;28;20236;-76
2022/03/26 03:48:01;;;;;;;25.20;19.37;;;7.80;21.20;;;;;;10318066;28;20236;-76
2022/03/26 03:53:06;;;;;;;21.87;18.83;;;7.70;21.50;;;;;;10317199;28;20237;-77
2022/03/26 03:58:09;;;;;;;25.03;19.37;;;7.60;21.60;;;;;;10315284;28;20255;-77
2022/03/26 04:03:13;;;;;;;23.00;17.67;;;7.60;21.50;;;;;;10315818;28;20234;-77
2022/03/26 04:08:17;;;;;;;23.53;18.23;;;7.50;21.60;;;;;;10320355;28;20243;-77
2022/03/26 04:13:21;;;;;;;21.93;17.60;;;7.50;21.90;;;;;;10316940;28;20231;-76
2022/03/26 04:18:24;;;;;;;19.70;16.87;;;7.40;21.60;;;;;;10318459;28;20581;-76
2022/03/26 04:23:29;;;;;;;19.47;17.07;;;7.40;21.50;;;;;;10312361;28;20228;-76
2022/03/26 04:28:32;;;;;;;17.20;14.13;;;7.30;21.80;;;;;;10313270;28;20747;-77
2022/03/26 04:33:35;;;;;;;19.80;17.17;;;7.30;21.70;;;;;;10310503;28;20231;-77
2022/03/26 04:38:40;;;;;;;19.70;17.40;;;7.20;21.70;;;;;;10319929;28;20265;-76
2022/03/26 04:43:43;;;;;;;18.77;16.77;;;7.20;21.80;;;;;;10315993;28;20230;-77
2022/03/26 04:48:46;;;;;;;18.07;15.40;;;7.10;21.70;;;;;;10309658;28;20234;-77
2022/03/26 04:53:51;;;;;;;20.23;16.23;;;7.10;21.80;;;;;;10312851;28;20234;-77
2022/03/26 04:58:55;;;;;;;18.80;15.83;;;7.10;22.10;;;;;;10314637;28;20231;-76
2022/03/26 05:03:58;;;;;;;17.60;14.93;;;7.10;21.90;;;;;;10320422;28;20317;-75
2022/03/26 05:09:03;;;;;;;19.30;17.20;;;7.00;21.90;;;;;;10317757;28;20264;-76
2022/03/26 05:14:06;;;;;;;22.07;17.97;;;7.00;22.30;;;;;;10330431;28;20235;-74
2022/03/26 05:19:10;;;;;;;18.53;16.03;;;7.00;22.00;;;;;;10325417;28;20241;-75
2022/03/26 05:24:14;;;;;;;23.10;17.67;;;7.00;21.90;;;;;;10335127;28;20664;-75
2022/03/26 05:29:17;;;;;;;26.10;20.23;;;7.00;22.30;;;;;;10332908;28;20235;-76
2022/03/26 05:34:21;;;;;;;22.90;18.87;;;6.90;22.00;;;;;;10326923;28;20325;-76
2022/03/26 05:39:25;;;;;;;20.90;18.00;;;6.80;22.00;;;;;;10322492;28;20729;-75
2022/03/26 05:44:28;;;;;;;23.93;18.40;;;6.70;22.10;;;;;;10332183;28;20884;-75
2022/03/26 05:49:31;;;;;;;24.13;20.13;;;6.70;22.20;;;;;;10329191;28;20234;-75
2022/03/26 05:54:36;;;;;;;28.10;19.40;;;6.60;22.40;;;;;;10334678;28;20233;-75
2022/03/26 05:59:39;;;;;;;24.23;17.90;;;6.60;22.60;;;;;;10331903;28;20230;-75
2022/03/26 06:04:43;;;;;;;21.10;18.47;;;6.60;22.50;;;;;;10330004;28;20231;-76
2022/03/26 06:09:47;;;;;;;23.80;17.60;;;6.60;22.80;;;;;;10328037;28;21052;-76
2022/03/26 06:14:50;;;;;;;27.47;18.60;;;6.60;23.00;;;;;;10327476;28;20339;-75
2022/03/26 06:19:53;;;;;;;21.10;17.93;;;6.60;23.00;;;;;;10322951;28;20655;-76
2022/03/26 06:24:58;;;;;;;20.43;15.97;;;6.60;23.10;;;;;;10324647;28;20273;-76
2022/03/26 06:30:01;;;;;;;23.03;18.50;;;6.60;23.30;;;;;;10331190;28;20254;-75
2022/03/26 06:35:05;;;;;;;31.47;22.63;;;6.70;23.20;;;;;;10336851;28;20817;-75
2022/03/26 06:40:11;;;;;;;33.20;23.37;;;6.80;23.40;;;;;;10331994;28;20655;-79
2022/03/26 06:45:14;;;;;;;26.90;20.53;;;6.90;23.80;;;;;;10326110;28;20234;-76
2022/03/26 06:50:18;;;;;;;24.00;19.70;;;7.00;23.60;;;;;;10325768;28;20917;-79
2022/03/26 06:55:23;;;;;;;22.43;19.40;;;7.10;23.60;;;;;;10325064;28;20238;-77
2022/03/26 07:00:26;;;;;;;23.00;18.53;;;7.20;23.90;;;;;;10325465;28;20227;-77
2022/03/26 07:05:29;;;;;;;24.50;18.70;;;7.30;23.70;;;;;;10325238;28;20241;-77
2022/03/26 07:10:35;;;;;;;24.47;18.63;;;7.40;23.80;;;;;;10325203;28;20235;-77
2022/03/26 07:15:38;;;;;;;20.73;17.57;;;7.50;24.10;;;;;;10325019;28;20318;-77
2022/03/26 07:20:41;;;;;;;21.33;18.27;;;7.60;24.00;;;;;;10331074;28;20234;-77
2022/03/26 07:25:46;;;;;;;19.67;16.83;;;7.80;24.20;;;;;;10333497;28;20310;-77
2022/03/26 07:30:49;;;;;;;22.73;17.57;;;7.90;24.50;;;;;;10358347;28;20234;-77
2022/03/26 07:35:52;;;;;;;21.60;17.70;;;8.10;24.40;;;;;;10373603;28;20384;-77
2022/03/26 07:40:57;;;;;;;21.83;16.47;;;8.30;24.60;;;;;;10356160;28;20609;-76
2022/03/26 07:46:00;;;;;;;21.67;16.87;;;8.50;24.80;;;;;;10339714;28;20222;-76
2022/03/26 07:51:04;;;;;;;20.87;16.10;;;8.70;24.70;;;;;;10324627;28;20223;-76
2022/03/26 07:56:08;;;;;;;19.33;15.97;;;9.00;24.70;;;;;;10330006;28;20242;-77
2022/03/26 08:01:11;;;;;;;17.27;14.97;;;9.30;24.90;;;;;;10336910;28;20242;-77
2022/03/26 08:06:15;;;;;;;24.93;16.87;;;9.60;24.90;;;;;;10323329;28;20231;-76
2022/03/26 08:11:19;;;;;;;23.87;17.97;;;9.90;24.90;;;;;;10327975;28;20780;-76
2022/03/26 08:16:23;;;;;;;20.13;16.20;;;10.20;24.30;;;;;;10317252;28;20244;-77
2022/03/26 08:21:26;;;;;;;23.10;17.37;;;10.50;24.20;;;;;;10318985;28;20230;-77
2022/03/26 08:26:31;;;;;;;26.03;17.60;;;10.90;24.40;;;;;;10311155;28;20230;-77
2022/03/26 08:31:35;;;;;;;20.80;15.27;;;11.20;25.00;;;;;;10311003;28;20235;-75
2022/03/26 08:36:38;;;;;;;24.43;18.23;;;11.60;24.80;;;;;;10323912;28;20242;-76
2022/03/26 08:41:43;;;;;;;22.17;16.53;;;12.00;24.40;;;;;;10326954;28;20812;-77
2022/03/26 08:46:47;;;;;;;25.43;18.33;;;12.40;24.40;;;;;;10318314;28;20931;-77
2022/03/26 08:51:51;;;;;;;20.73;17.27;;;12.80;24.10;;;;;;10324003;28;20274;-77
2022/03/26 08:56:55;;;;;;;23.73;17.63;;;13.10;23.90;;;;;;10333023;28;20234;-77
2022/03/26 09:01:58;;;;;;;23.00;18.77;;;13.50;23.70;;;;;;10326247;28;20235;-77
2022/03/26 09:07:02;;;;;;;24.30;19.43;;;13.90;23.20;;;;;;10328096;28;20230;-76
2022/03/26 09:12:08;;;;;;;22.57;19.00;;;14.30;23.00;;;;;;10322174;28;20243;-77
2022/03/26 09:17:11;;;;;;;22.77;19.90;;;14.70;22.40;;;;;;10318662;28;20283;-76
2022/03/26 09:22:14;;;;;;;25.40;20.43;;;15.10;22.60;;;;;;10337178;28;20241;-75
2022/03/26 09:27:19;;;;;;;23.80;19.30;;;15.50;21.80;;;;;;10347681;28;20261;-80
2022/03/26 09:32:22;;;;;;;22.20;18.43;;;15.90;21.50;;;;;;10341597;28;20235;-79
2022/03/26 09:37:26;;;;;;;24.13;19.43;;;16.20;21.50;;;;;;10331387;28;20722;-80
2022/03/26 09:42:30;;;;;;;24.83;20.10;;;16.50;21.20;;;;;;10330290;28;20256;-80
2022/03/26 09:47:34;;;;;;;26.50;21.30;;;16.80;20.40;;;;;;10332294;28;20731;-76
2022/03/26 09:52:38;;;;;;;22.70;19.43;;;17.10;19.90;;;;;;10315435;28;20231;-77
2022/03/26 09:57:47;;;;;;;22.83;19.87;;;17.30;19.80;;;;;;10318733;28;20237;-76
2022/03/26 10:02:51;;;;;;;24.67;19.80;;;17.50;19.40;;;;;;10316629;28;20238;-76
2022/03/26 10:07:54;;;;;;;24.20;20.13;;;17.80;19.90;;;;;;10313533;28;20243;-76
2022/03/26 10:12:59;;;;;;;23.37;19.47;;;18.00;19.70;;;;;;10313931;28;20229;-76
2022/03/26 10:18:10;;;;;;;23.90;19.90;;;18.20;19.30;;;;;;10308466;28;20237;-76
2022/03/26 10:23:26;;;;;;;26.10;20.80;;;18.40;18.70;;;;;;10327993;28;20227;-76
2022/03/26 10:28:31;;;;;;;26.83;20.93;;;18.60;19.40;;;;;;10320878;28;20231;-76
2022/03/26 10:33:35;;;;;;;24.23;20.30;;;18.80;18.70;;;;;;10317342;28;20224;-77
2022/03/26 10:38:42;;;;;;;26.47;21.50;;;18.90;19.00;;;;;;10318240;28;20234;-81
2022/03/26 10:43:47;;;;;;;23.47;19.63;;;19.10;18.40;;;;;;10309070;28;20305;-78
2022/03/26 10:49:02;;;;;;;23.43;20.50;;;19.30;18.50;;;;;;10314699;28;20971;-75
2022/03/26 10:54:09;;;;;;;26.23;20.23;;;19.40;17.20;;;;;;10307209;28;20230;-78
2022/03/26 10:59:14;;;;;;;22.77;19.93;;;19.60;17.90;;;;;;10319569;28;20259;-78
2022/03/26 11:04:18;;;;;;;23.13;20.50;;;19.70;18.00;;;;;;10342317;28;20234;-80
2022/03/26 11:09:21;;;;;;;25.77;20.17;;;19.80;17.90;;;;;;10334719;28;20231;-79
2022/03/26 11:14:33;;;;;;;21.77;19.30;;;19.90;17.90;;;;;;10331069;28;20243;-74
2022/03/26 11:19:46;;;;;;;23.73;20.57;;;20.00;17.30;;;;;;10330969;28;20719;-74
2022/03/26 11:25:09;;;;;;;22.50;19.50;;;20.10;16.30;;;;;;10329343;28;20341;-76
2022/03/26 11:30:19;;;;;;;22.43;19.93;;;20.20;16.10;;;;;;10329701;28;20241;-73
2022/03/26 11:35:23;;;;;;;23.93;19.03;;;20.30;16.30;;;;;;10330561;28;20262;-76
2022/03/26 11:40:43;;;;;;;23.87;19.90;;;20.30;17.00;;;;;;10330638;28;20234;-74
2022/03/26 11:51:19;;;;;;;23.80;20.07;;;20.40;16.40;;;;;;10329559;28;20713;-75
2022/03/26 11:56:23;;;;;;;25.60;21.77;;;20.40;16.00;;;;;;10329652;28;20262;-74
2022/03/26 12:01:35;;;;;;;22.87;20.47;;;20.40;16.10;;;;;;10329395;28;20246;-74
2022/03/26 12:06:44;;;;;;;21.53;18.17;;;20.50;15.50;;;;;;10329166;28;20313;-74
2022/03/26 12:12:17;;;;;;;22.77;19.60;;;20.50;15.50;;;;;;10329397;28;20227;-74
2022/03/26 12:17:46;;;;;;;20.47;18.30;;;20.50;15.50;;;;;;10328757;28;20323;-74
2022/03/26 12:22:51;;;;;;;22.37;19.97;;;20.60;15.60;;;;;;10329007;28;20313;-74
2022/03/26 12:27:54;;;;;;;22.77;19.37;;;20.70;15.80;;;;;;10328492;28;20231;-74
2022/03/26 12:33:00;;;;;;;22.47;20.07;;;20.70;15.70;;;;;;10328337;28;20241;-76
2022/03/26 12:38:05;;;;;;;22.37;20.03;;;20.70;15.60;;;;;;10328328;28;20250;-75
2022/03/26 12:43:10;;;;;;;22.60;19.60;;;20.70;15.60;;;;;;10328273;28;20265;-73
2022/03/26 12:48:16;;;;;;;24.63;21.50;;;20.70;15.60;;;;;;10328246;28;20249;-72
2022/03/26 12:53:20;;;;;;;22.30;19.77;;;20.70;15.00;;;;;;10329253;28;20263;-75
2022/03/26 13:03:47;;;;;;;24.07;20.43;;;20.60;15.60;;;;;;10329790;28;20239;-75
2022/03/26 13:08:51;;;;;;;21.57;17.73;;;20.70;14.60;;;;;;10328565;28;20265;-73
2022/03/26 13:13:56;;;;;;;21.10;17.73;;;20.60;14.90;;;;;;10328287;28;20231;-74
2022/03/26 13:19:03;;;;;;;22.87;17.90;;;20.60;14.70;;;;;;10328663;28;20243;-74
2022/03/26 13:24:08;;;;;;;22.43;19.23;;;20.60;14.20;;;;;;10330742;28;20231;-75
2022/03/26 13:29:13;;;;;;;21.13;17.80;;;20.60;14.50;;;;;;10330421;28;20270;-75
2022/03/26 13:34:23;;;;;;;18.37;16.47;;;20.60;14.80;;;;;;10329351;28;20728;-74
2022/03/26 13:39:30;;;;;;;17.33;14.80;;;20.60;13.80;;;;;;10328863;28;20306;-74
2022/03/26 13:44:33;;;;;;;18.73;16.40;;;20.70;13.60;;;;;;10328453;28;20235;-74
2022/03/26 13:49:38;;;;;;;21.80;17.40;;;20.80;14.00;;;;;;10329172;28;20237;-74
2022/03/26 13:54:41;;;;;;;18.23;15.83;;;20.80;13.40;;;;;;10328345;28;20294;-75
2022/03/26 13:59:48;;;;;;;18.90;16.00;;;20.80;14.00;;;;;;10326791;28;20237;-74
2022/03/26 14:04:53;;;;;;;21.90;16.80;;;20.80;13.10;;;;;;10326688;28;20234;-74
2022/03/26 14:09:56;;;;;;;17.20;14.73;;;20.90;13.20;;;;;;10326620;28;20242;-76
2022/03/26 14:14:59;;;;;;;16.83;14.97;;;20.90;13.50;;;;;;10325520;28;20244;-77
2022/03/26 14:20:05;;;;;;;17.67;15.60;;;20.90;13.40;;;;;;10324647;28;20235;-77
2022/03/26 14:25:09;;;;;;;17.53;15.63;;;21.00;13.00;;;;;;10324816;28;20243;-77
2022/03/26 14:30:12;;;;;;;19.33;15.60;;;21.00;13.20;;;;;;10332608;28;20868;-76
2022/03/26 14:35:17;;;;;;;16.03;14.40;;;21.10;13.20;;;;;;10339441;28;20232;-77
2022/03/26 14:40:20;;;;;;;16.53;14.33;;;21.20;12.70;;;;;;10334762;28;20234;-76
2022/03/26 14:45:24;;;;;;;16.80;14.93;;;21.20;13.10;;;;;;10338711;28;20237;-77
2022/03/26 14:50:29;;;;;;;15.43;13.73;;;21.30;12.70;;;;;;10333080;28;20258;-77
2022/03/26 14:55:32;;;;;;;63.13;18.17;;;21.30;12.40;;;;;;10333532;28;20235;-77
2022/03/26 15:00:36;;;;;;;18.60;15.63;;;21.30;12.90;;;;;;10318168;28;20732;-77
2022/03/26 15:05:41;;;;;;;20.40;16.07;;;21.40;12.60;;;;;;10330139;28;20235;-77
2022/03/26 15:10:46;;;;;;;17.33;15.37;;;21.30;12.40;;;;;;10333242;28;20544;-78
2022/03/26 15:15:49;;;;;;;17.10;15.30;;;21.40;12.80;;;;;;10331328;28;20238;-79
2022/03/26 15:20:54;;;;;;;16.30;14.60;;;21.40;12.70;;;;;;10330783;28;20230;-78
2022/03/26 15:26:02;;;;;;;16.47;14.73;;;21.40;12.50;;;;;;10334873;28;20730;-79
2022/03/26 15:31:05;;;;;;;15.97;14.20;;;21.40;12.60;;;;;;10328554;28;20266;-79
2022/03/26 15:36:10;;;;;;;17.77;14.77;;;21.40;12.30;;;;;;10336532;28;20238;-78
2022/03/26 15:41:14;;;;;;;17.83;13.73;;;21.30;12.00;;;;;;10331796;28;20234;-79
2022/03/26 15:46:17;;;;;;;15.17;13.57;;;21.30;12.30;;;;;;10323446;28;20616;-79
2022/03/26 15:51:25;;;;;;;14.83;13.23;;;21.30;12.20;;;;;;10325824;28;20259;-80
2022/03/26 15:56:29;;;;;;;15.50;12.67;;;21.30;11.80;;;;;;10312147;28;20234;-79
2022/03/26 16:01:32;;;;;;;14.70;12.03;;;21.30;12.00;;;;;;10338178;28;20751;-80
2022/03/26 16:06:37;;;;;;;14.70;12.60;;;21.30;11.90;;;;;;10326382;28;20282;-77
2022/03/26 16:11:40;;;;;;;13.80;11.93;;;21.30;11.80;;;;;;10344552;28;20242;-80
2022/03/26 16:16:45;;;;;;;17.20;13.50;;;21.30;12.20;;;;;;10324137;28;20235;-77
2022/03/26 16:21:50;;;;;;;13.40;12.00;;;21.30;12.20;;;;;;10327947;28;20743;-76
2022/03/26 16:26:53;;;;;;;14.77;13.17;;;21.30;12.10;;;;;;10340010;28;20610;-76
2022/03/26 16:31:56;;;;;;;14.60;12.70;;;21.30;12.30;;;;;;10347931;28;20244;-77
2022/03/26 16:37:01;;;;;;;13.77;12.27;;;21.30;12.30;;;;;;10333247;28;20243;-80
2022/03/26 16:42:05;;;;;;;14.67;11.83;;;21.30;12.10;;;;;;10333848;28;20228;-80
2022/03/26 16:47:08;;;;;;;16.43;11.80;;;21.20;12.30;;;;;;10334872;28;20249;-82
2022/03/26 16:52:13;;;;;;;15.27;11.53;;;21.20;12.50;;;;;;10333216;28;20242;-82
2022/03/26 16:57:16;;;;;;;11.30;10.10;;;21.10;12.20;;;;;;10334361;28;20746;-80
2022/03/26 17:02:20;;;;;;;12.50;11.20;;;21.10;12.40;;;;;;10330929;28;20241;-80
2022/03/26 17:07:24;;;;;;;12.63;11.33;;;21.00;12.20;;;;;;10337479;28;20235;-81
2022/03/26 17:12:28;;;;;;;12.60;10.90;;;21.00;12.30;;;;;;10340141;28;20749;-81
2022/03/26 17:17:32;;;;;;;11.17;9.97;;;20.90;12.30;;;;;;10336197;28;20335;-80
2022/03/26 17:22:37;;;;;;;11.80;9.97;;;20.70;12.30;;;;;;10335497;28;20607;-81
2022/03/26 17:27:40;;;;;;;18.40;10.60;;;20.60;12.10;;;;;;10335345;28;20790;-81
2022/03/26 17:32:48;;;;;;;14.17;11.10;;;20.50;12.30;;;;;;10335732;28;20234;-81
2022/03/26 17:37:52;;;;;;;12.87;10.23;;;20.40;12.50;;;;;;10339972;28;20254;-81
2022/03/26 17:42:55;;;;;;;15.13;13.60;;;20.20;12.50;;;;;;10325870;28;20726;-81
2022/03/26 17:47:58;;;;;;;21.80;18.67;;;20.10;12.70;;;;;;10343515;28;20235;-80
2022/03/26 17:53:03;;;;;;;16.73;13.80;;;20.00;12.70;;;;;;10331774;28;20270;-80
2022/03/26 17:58:06;;;;;;;22.27;19.97;;;19.90;13.10;;;;;;10330339;28;20322;-82
2022/03/26 18:03:21;;;;;;;23.47;16.67;;;19.70;12.90;;;;;;10341773;28;20303;-81
2022/03/26 18:08:26;;;;;;;17.70;14.40;;;19.50;12.90;;;;;;10346409;28;20269;-80
2022/03/26 18:13:29;;;;;;;15.23;13.20;;;19.40;13.10;;;;;;10330617;28;20237;-80
2022/03/26 18:18:33;;;;;;;13.70;12.30;;;19.20;13.10;;;;;;10339113;28;20230;-80
2022/03/26 18:23:37;;;;;;;12.03;10.70;;;18.90;13.10;;;;;;10338984;28;20226;-80
2022/03/26 18:28:40;;;;;;;11.67;10.37;;;18.80;13.20;;;;;;10345155;28;20236;-81
2022/03/26 18:33:44;;;;;;;20.40;14.10;;;18.70;13.40;;;;;;10339585;28;20300;-80
2022/03/26 18:38:49;;;;;;;24.13;21.20;;;18.50;13.30;;;;;;10328985;28;20239;-80
2022/03/26 18:43:53;;;;;;;23.60;21.10;;;18.40;13.60;;;;;;10332494;28;20226;-80
2022/03/26 18:48:56;;;;;;;22.27;19.70;;;18.20;13.50;;;;;;10335365;28;20323;-80
2022/03/26 18:54:00;;;;;;;19.90;16.77;;;18.00;13.50;;;;;;10330367;28;20318;-81
2022/03/26 18:59:05;;;;;;;17.30;15.17;;;17.80;13.70;;;;;;10327523;28;20708;-79
2022/03/26 19:04:09;;;;;;;17.57;14.83;;;17.70;13.60;;;;;;10332542;28;20234;-79
2022/03/26 19:09:13;;;;;;;16.23;11.43;;;17.60;13.50;;;;;;10337390;28;20327;-79
2022/03/26 19:14:17;;;;;;;14.30;10.90;;;17.40;13.40;;;;;;10325162;28;20298;-79
2022/03/26 19:19:20;;;;;;;11.83;9.13;;;17.20;13.30;;;;;;10329127;28;20226;-78
2022/03/26 19:24:24;;;;;;;11.77;10.20;;;17.10;13.40;;;;;;10332952;28;20708;-78
2022/03/26 19:29:40;;;;;;;16.40;13.07;;;16.90;13.60;;;;;;10335229;28;20227;-77
2022/03/26 19:34:47;;;;;;;21.87;17.20;;;16.70;13.70;;;;;;10331097;28;20238;-78
2022/03/26 19:39:53;;;;;;;33.77;25.67;;;16.50;13.80;;;;;;10324221;28;20234;-78
2022/03/26 19:44:58;;;;;;;24.20;18.97;;;16.40;13.80;;;;;;10329597;28;20239;-78
2022/03/26 19:50:02;;;;;;;18.37;13.57;;;16.20;13.70;;;;;;10330933;28;20254;-78
2022/03/26 19:55:07;;;;;;;14.73;11.23;;;15.90;13.60;;;;;;10331769;28;20644;-78
2022/03/26 20:00:11;;;;;;;17.17;10.23;;;15.60;13.80;;;;;;10330820;28;20231;-78
2022/03/26 20:05:15;;;;;;;14.17;10.47;;;15.30;14.00;;;;;;10330816;28;20796;-77
2022/03/26 20:10:20;;;;;;;13.07;9.57;;;15.10;13.90;;;;;;10330583;28;20611;-77
2022/03/26 20:15:24;;;;;;;29.83;22.17;;;14.80;14.00;;;;;;10330725;28;20234;-78
2022/03/26 20:20:27;;;;;;;44.70;31.40;;;14.60;14.20;;;;;;10330128;28;20231;-77
2022/03/26 20:25:32;;;;;;;27.37;21.23;;;14.30;14.30;;;;;;10342597;28;20241;-78
2022/03/26 20:30:36;;;;;;;16.97;14.93;;;14.10;14.50;;;;;;10329946;28;20231;-78
2022/03/26 20:35:40;;;;;;;13.37;11.90;;;14.00;14.60;;;;;;10330398;28;20322;-78
2022/03/26 20:40:45;;;;;;;17.03;11.63;;;13.80;14.80;;;;;;10330482;28;20317;-78
2022/03/26 20:45:49;;;;;;;17.53;12.00;;;13.60;15.00;;;;;;10329154;28;20585;-78
2022/03/26 20:50:52;;;;;;;18.73;12.97;;;13.50;15.20;;;;;;10329133;28;20235;-77
2022/03/26 20:55:57;;;;;;;13.50;11.23;;;13.40;15.20;;;;;;10330932;28;20234;-77
2022/03/26 21:01:00;;;;;;;17.23;12.70;;;13.20;15.30;;;;;;10319096;28;20237;-77
2022/03/26 21:06:04;;;;;;;15.93;12.77;;;13.20;15.40;;;;;;10317993;28;20239;-77
2022/03/26 21:11:09;;;;;;;20.37;15.07;;;13.10;15.30;;;;;;10326667;28;20227;-78
2022/03/26 21:16:13;;;;;;;17.53;13.50;;;12.90;15.70;;;;;;10322804;28;20242;-77
2022/03/26 21:21:16;;;;;;;15.93;12.93;;;12.80;15.60;;;;;;10320570;28;20223;-77
2022/03/26 21:26:21;;;;;;;15.73;12.60;;;12.70;15.80;;;;;;10325681;28;20231;-76
2022/03/26 21:31:24;;;;;;;13.27;10.87;;;12.70;16.20;;;;;;10327234;28;20305;-78
2022/03/26 21:36:28;;;;;;;15.87;13.27;;;12.60;15.90;;;;;;10334468;28;20905;-78
2022/03/26 21:41:32;;;;;;;13.60;10.90;;;12.60;15.90;;;;;;10335952;28;20748;-79
2022/03/26 21:46:36;;;;;;;19.50;13.20;;;12.50;16.10;;;;;;10332538;28;20237;-78
2022/03/26 21:51:40;;;;;;;13.47;11.07;;;12.50;16.00;;;;;;10328219;28;20290;-77
2022/03/26 21:56:45;;;;;;;17.00;13.23;;;12.30;15.90;;;;;;10329597;28;20238;-79
2022/03/26 22:01:48;;;;;;;17.07;13.33;;;12.20;16.20;;;;;;10325208;28;20234;-77
2022/03/26 22:06:51;;;;;;;17.07;12.90;;;11.90;16.00;;;;;;10330128;28;20239;-76
2022/03/26 22:11:56;;;;;;;16.07;13.13;;;11.70;16.10;;;;;;10322241;28;20981;-77
2022/03/26 22:16:59;;;;;;;14.83;11.90;;;11.60;16.50;;;;;;10319779;28;20241;-77
2022/03/26 22:22:02;;;;;;;17.27;13.17;;;11.40;16.50;;;;;;10312522;28;20246;-77
2022/03/26 22:27:07;;;;;;;15.53;12.83;;;11.40;16.60;;;;;;10317385;28;20728;-76
2022/03/26 22:32:11;;;;;;;17.80;13.00;;;11.30;16.90;;;;;;10310205;28;20237;-77
2022/03/26 22:37:35;;;;;;;14.40;11.97;;;11.30;16.90;;;;;;10316178;28;20711;-78
2022/03/26 22:42:40;;;;;;;16.93;12.50;;;11.20;16.90;;;;;;10325659;28;20230;-77
2022/03/26 22:47:44;;;;;;;18.00;13.43;;;11.10;17.00;;;;;;10318975;28;20239;-76
2022/03/26 22:52:48;;;;;;;16.30;11.77;;;10.90;16.70;;;;;;10315133;28;20231;-77
2022/03/26 22:57:53;;;;;;;17.60;12.37;;;10.80;17.00;;;;;;10324220;28;20236;-76
2022/03/26 23:02:57;;;;;;;17.93;13.27;;;10.70;17.30;;;;;;10331602;28;20231;-77
2022/03/26 23:08:03;;;;;;;15.83;10.93;;;10.60;17.80;;;;;;10333200;28;20335;-77
2022/03/26 23:13:07;;;;;;;15.60;11.20;;;10.60;17.30;;;;;;10324916;28;20235;-77
2022/03/26 23:18:12;;;;;;;19.77;13.17;;;10.50;17.40;;;;;;10325260;28;20261;-77
2022/03/26 23:23:15;;;;;;;18.43;13.77;;;10.40;17.30;;;;;;10327069;28;20241;-76
2022/03/26 23:28:19;;;;;;;17.63;13.80;;;10.20;17.20;;;;;;10332622;28;20235;-77
2022/03/26 23:33:22;;;;;;;16.47;12.43;;;10.10;17.60;;;;;;10319395;28;20726;-77
2022/03/26 23:38:26;;;;;;;13.73;10.50;;;9.90;18.70;;;;;;10331138;28;20722;-76
2022/03/26 23:43:30;;;;;;;16.53;12.70;;;9.80;18.20;;;;;;10328122;28;20237;-75
2022/03/26 23:48:34;;;;;;;15.73;11.47;;;9.70;18.90;;;;;;10327407;28;20227;-76
2022/03/26 23:53:37;;;;;;;14.27;11.63;;;9.70;18.70;;;;;;10331373;28;21220;-76
2022/03/26 23:58:42;;;;;;;10.80;9.57;;;9.60;18.90;;;;;;10325378;28;20312;-76
